Thunder radar more information blitzortung!


avis per Pluja more information rain snow radar


Visita la nostra xarxa de llocs de meteo:

Template documentation
and downloads

And another site



Rain From: 15-11-2018 14:00 Until: 23:59 warning for: Rain Level: Orange info button

Pagina Historial Weather Underground text

Diari Resum January 30, 2018 Unitats:  Mètric    Imperial   Tant
« Previous Dia
SegĂźent Dia »
Diari Setmana Mensual Anual Personalitzada
  Maxima: Minima: Media:
Temperatura: -17.8 °C 2.8 °C 9.9 °C
Punt de rosada: -17.8 °C -0.5 °C 3.8 °C
Humitat: Humidity % 53 % 66 %
Wind Speed: 0 km/h 0 km/h 3.4 km/h
RĂ fegues de vent: 0 km/h - -
Vent:- - NE
Pression baro: 0 hPa 1026 hPa -
Precipitacions: 0 mm    
Historical Graphs
 
 
Dades de taula per January 30, 2018
Temps Temperatura Punt de rosada Pression baro Vent Wind Speed RĂ fegues de vent Humitat Rainfall Rate (Hourly)
-17.8 °C -17.8 °C 0 hPa Calm     Humidity % 0 mm
00:02 7.5 °C 1.6 °C 1033.7 hPa North 3.2 km/h 3.2 km/h 66 % 0 mm
00:05 3.8 °C 0.1 °C 1032.1 hPa North 1.6 km/h 3.2 km/h 77 % 0 mm
00:07 6.9 °C 1 °C 1033.7 hPa North 3.7 km/h 3.7 km/h 66 % 0 mm
00:12 6.8 °C 1.1 °C 1033.7 hPa North 2.3 km/h 2.3 km/h 67 % 0 mm
00:15 3.8 °C 0.1 °C 1032.1 hPa North 1.6 km/h 1.6 km/h 77 % 0 mm
00:17 6.7 °C 1 °C 1033.7 hPa Calm     67 % 0 mm
00:22 6.7 °C 1.2 °C 1033.7 hPa North 3.9 km/h 3.9 km/h 68 % 0 mm
00:25 3.8 °C 0.3 °C 1032.1 hPa North 3.2 km/h 3.2 km/h 78 % 0 mm
00:27 6.4 °C 0.7 °C 1033.7 hPa North 5.6 km/h 5.6 km/h 67 % 0 mm
00:32 6.3 °C 0.6 °C 1033.7 hPa North 3.7 km/h 3.7 km/h 67 % 0 mm
00:35 3.5 °C -0.2 °C 1032.1 hPa North 1.6 km/h 3.2 km/h 77 % 0 mm
00:37 6.3 °C 0.8 °C 1033.7 hPa North 3.5 km/h 3.5 km/h 68 % 0 mm
00:45 3.4 °C -0.3 °C 1032.1 hPa Calm   3.2 km/h 77 % 0 mm
00:55 3.7 °C 0.1 °C 1032.1 hPa North 3.2 km/h 4.8 km/h 77 % 0 mm
01:05 3.6 °C 0.1 °C 1032.1 hPa North 1.6 km/h 1.6 km/h 78 % 0 mm
01:15 3.6 °C 0.1 °C 1032.1 hPa Calm   4.8 km/h 78 % 0 mm
01:35 3.5 °C 0 °C 1032.1 hPa Calm   1.6 km/h 78 % 0 mm
01:45 3.5 °C 0 °C 1032.1 hPa Calm   1.6 km/h 78 % 0 mm
01:55 3.6 °C 0.1 °C 1032.1 hPa North 1.6 km/h 3.2 km/h 78 % 0 mm
02:05 3.6 °C 0.3 °C 1032.1 hPa Calm   1.6 km/h 79 % 0 mm
02:15 3.5 °C 0.2 °C 1032.1 hPa North 1.6 km/h 1.6 km/h 79 % 0 mm
02:25 3.5 °C 0.2 °C 1032.1 hPa North 1.6 km/h 1.6 km/h 79 % 0 mm
02:35 3.6 °C 0.3 °C 1032.1 hPa Calm   3.2 km/h 79 % 0 mm
02:45 4 °C 0.7 °C 1032.1 hPa Calm   3.2 km/h 79 % 0 mm
02:55 4.5 °C 1.3 °C 1032.1 hPa North 1.6 km/h 1.6 km/h 80 % 0 mm
03:15 4.7 °C 1.4 °C 1032.1 hPa Calm   3.2 km/h 79 % 0 mm
03:25 5.8 °C 2.6 °C 1032.1 hPa Calm     80 % 0 mm
03:35 6 °C 2.4 °C 1032.1 hPa North 1.6 km/h 3.2 km/h 78 % 0 mm
03:45 6.4 °C 2.7 °C 1032.1 hPa North 1.6 km/h 1.6 km/h 77 % 0 mm
03:55 6.7 °C 2.9 °C 1032.1 hPa Calm   3.2 km/h 77 % 0 mm
04:05 7.4 °C 3.3 °C 1032.1 hPa Calm   3.2 km/h 75 % 0 mm
04:15 7.2 °C 2.9 °C 1032.1 hPa Calm   3.2 km/h 74 % 0 mm
04:25 7.6 °C 3.3 °C 1032.7 hPa North 1.6 km/h 3.2 km/h 74 % 0 mm
04:35 8.3 °C 3.7 °C 1032.1 hPa Calm   1.6 km/h 73 % 0 mm
10:40 8.4 °C 3.7 °C 1032.1 hPa North 3.7 km/h 3.7 km/h 72 % 0 mm
10:45 8.8 °C 4 °C 1032.1 hPa North 3.7 km/h 3.7 km/h 72 % 0 mm
10:50 9.1 °C 4.1 °C 1032.1 hPa North 3.7 km/h 3.7 km/h 71 % 0 mm
10:55 9.1 °C 3.9 °C 1032.1 hPa ENE 5.6 km/h 5.6 km/h 70 % 0 mm
11:00 9.1 °C 3.7 °C 1032.7 hPa ENE 7.4 km/h 7.4 km/h 69 % 0 mm
11:05 9.1 °C 3.9 °C 1032.7 hPa NNE 5.6 km/h 5.6 km/h 70 % 0 mm
11:10 9.3 °C 3.9 °C 1032.7 hPa ENE 7.4 km/h 7.4 km/h 69 % 0 mm
11:15 9.2 °C 3.6 °C 1032.1 hPa NE 7.4 km/h 7.4 km/h 68 % 0 mm
11:20 9.4 °C 3.8 °C 1032.1 hPa ENE 7.4 km/h 7.4 km/h 68 % 0 mm
11:25 9.8 °C 4.2 °C 1032.1 hPa NNE 6.1 km/h 6.1 km/h 68 % 0 mm
11:30 9.9 °C 4.1 °C 1032.1 hPa NNE 7.4 km/h 7.4 km/h 67 % 0 mm
11:35 10.3 °C 4.4 °C 1032.1 hPa NE 7.4 km/h 7.4 km/h 67 % 0 mm
11:40 10.6 °C 4.7 °C 1032.1 hPa ENE 7.4 km/h 7.4 km/h 67 % 0 mm
11:45 10.7 °C 4.6 °C 1030.7 hPa NE 5.6 km/h 5.6 km/h 66 % 0 mm
11:50 10.9 °C 4.6 °C 1030.7 hPa ENE 5.8 km/h 6.1 km/h 65 % 0 mm
11:55 11.1 °C 4.8 °C 1030.7 hPa NE 7.4 km/h 7.4 km/h 65 % 0 mm
12:00 11.2 °C 4.6 °C 1030.7 hPa NE 9.3 km/h 9.3 km/h 64 % 0 mm
12:05 11.7 °C 5.3 °C 1030.7 hPa ENE 3.7 km/h 3.7 km/h 65 % 0 mm
12:10 11.8 °C 5.2 °C 1030.7 hPa NNE 5.8 km/h 5.8 km/h 64 % 0 mm
12:15 11.8 °C 5.2 °C 1032.1 hPa NNE 5.6 km/h 5.6 km/h 64 % 0 mm
12:20 12.1 °C 5.5 °C 1032.1 hPa North 3.7 km/h 3.7 km/h 64 % 0 mm
12:25 12 °C 5.2 °C 1032.1 hPa ENE 3.7 km/h 3.7 km/h 63 % 0 mm
12:30 12.5 °C 5.7 °C 1032.1 hPa ENE 3.2 km/h   63 % 0 mm
12:35 12.6 °C 5.7 °C 1032.1 hPa ENE 4.7 km/h 4.7 km/h 63 % 0 mm
12:40 12.5 °C 5.4 °C 1032.1 hPa ENE 3.7 km/h 3.7 km/h 62 % 0 mm
12:45 12.8 °C 5.9 °C 1030.7 hPa ENE 3.9 km/h 3.9 km/h 63 % 0 mm
12:50 12.8 °C 5.7 °C 1030.7 hPa ENE 3.7 km/h 3.7 km/h 62 % 0 mm
12:55 13.1 °C 6 °C 1030.7 hPa ENE 5.6 km/h 5.6 km/h 62 % 0 mm
13:00 13.1 °C 5.7 °C 1030.7 hPa ENE 5.6 km/h 5.6 km/h 61 % 0 mm
13:05 13.4 °C 6 °C 1030.7 hPa ENE 5.6 km/h 5.6 km/h 61 % 0 mm
13:10 13.4 °C 6 °C 1030.7 hPa ENE 5.8 km/h 5.8 km/h 61 % 0 mm
13:15 13.6 °C 6.2 °C 1030.7 hPa ENE 5.6 km/h 5.6 km/h 61 % 0 mm
13:20 13.8 °C 6.4 °C 1030.7 hPa NE 7.4 km/h 7.4 km/h 61 % 0 mm
13:25 14 °C 6.6 °C 1030.7 hPa NE 6.1 km/h 6.1 km/h 61 % 0 mm
13:30 13.9 °C 6.3 °C 1030 hPa NE 4.2 km/h 4.2 km/h 60 % 0 mm
13:35 14.3 °C 6.6 °C 1030 hPa NE 2.6 km/h 2.6 km/h 60 % 0 mm
13:40 14.5 °C 6.8 °C 1030 hPa NE 5.6 km/h 5.6 km/h 60 % 0 mm
13:45 14.6 °C 6.4 °C 1030 hPa NE 9.3 km/h 9.3 km/h 58 % 0 mm
13:50 14.8 °C 6.6 °C 1030 hPa NE 5.6 km/h 5.6 km/h 58 % 0 mm
13:55 14.8 °C 6.3 °C 1030 hPa NE 5.6 km/h 5.6 km/h 57 % 0 mm
14:00 14.7 °C 6.3 °C 1030 hPa NE 7.4 km/h 7.4 km/h 57 % 0 mm
14:05 14.8 °C 6.6 °C 1030 hPa NE 5.6 km/h 5.6 km/h 58 % 0 mm
14:10 14.8 °C 6.3 °C 1030 hPa NE 7.4 km/h 7.4 km/h 57 % 0 mm
14:15 15 °C 6.8 °C 1030 hPa NE 3.9 km/h 3.9 km/h 58 % 0 mm
14:20 15.1 °C 6.9 °C 1030 hPa NE 3.7 km/h 3.7 km/h 58 % 0 mm
14:25 15.3 °C 7.1 °C 1030 hPa NE 7.2 km/h 7.2 km/h 58 % 0 mm
14:30 15.6 °C 7.3 °C 1030 hPa NE 3.7 km/h 3.7 km/h 58 % 0 mm
14:35 16 °C 7.7 °C 1030 hPa NE 3.7 km/h 3.7 km/h 58 % 0 mm
14:40 15.9 °C 7.4 °C 1030 hPa NE 5.6 km/h 5.6 km/h 57 % 0 mm
14:45 16 °C 7.7 °C 1030 hPa NE 3.7 km/h 3.7 km/h 58 % 0 mm
14:50 16.2 °C 8.2 °C 1030 hPa NE 9.3 km/h 9.3 km/h 59 % 0 mm
14:55 16.5 °C 8.2 °C 1030 hPa NE 9.3 km/h 9.3 km/h 58 % 0 mm
15:00 16.4 °C 7.8 °C 1030 hPa NE 9.3 km/h 9.3 km/h 57 % 0 mm
15:05 16.1 °C 7.3 °C 1030 hPa NE 11.1 km/h 11.1 km/h 56 % 0 mm
15:10 16.2 °C 7.4 °C 1030 hPa NE 7.4 km/h 7.4 km/h 56 % 0 mm
15:15 16.3 °C 7.5 °C 1030 hPa NE 9.3 km/h 9.3 km/h 56 % 0 mm
15:20 16.5 °C 7.7 °C 1030 hPa NE 5.6 km/h 5.6 km/h 56 % 0 mm
15:25 16.6 °C 7.8 °C 1030 hPa NE 11.9 km/h 11.9 km/h 56 % 0 mm
15:30 16.6 °C 7.5 °C 1030 hPa NE 9.3 km/h 9.3 km/h 55 % 0 mm
15:35 16.7 °C 7.3 °C 1030 hPa NE 6.4 km/h 6.4 km/h 54 % 0 mm
15:40 16.7 °C 7.3 °C 1030 hPa NE 9.3 km/h 9.3 km/h 54 % 0 mm
15:45 16.6 °C 7.2 °C 1030 hPa NE 7.4 km/h 7.4 km/h 54 % 0 mm
15:50 16.7 °C 7.3 °C 1030 hPa NE 9.3 km/h 9.3 km/h 54 % 0 mm
15:55 17 °C 7.3 °C 1030 hPa NE 3.9 km/h 3.9 km/h 53 % 0 mm
16:00 17.1 °C 7.4 °C 1030 hPa NE 5.6 km/h 5.6 km/h 53 % 0 mm
16:05 16.8 °C 7.4 °C 1030 hPa NE 7.4 km/h 7.4 km/h 54 % 0 mm
16:10 16.8 °C 7.4 °C 1030 hPa NE 7.4 km/h 7.4 km/h 54 % 0 mm
16:15 16.7 °C 7.3 °C 1030 hPa NE 7.4 km/h 7.4 km/h 54 % 0 mm
16:20 16.7 °C 7.3 °C 1030 hPa NE 4.7 km/h 4.7 km/h 54 % 0 mm
16:25 16.5 °C 7.2 °C 1030 hPa NE 9.3 km/h 9.3 km/h 54 % 0 mm
16:30 16.3 °C 6.9 °C 1030 hPa NE 11.1 km/h 11.1 km/h 54 % 0 mm
16:35 16.2 °C 6.9 °C 1030 hPa NE 7.4 km/h 7.4 km/h 54 % 0 mm
16:40 16 °C 6.7 °C 1030 hPa NE 9.3 km/h 9.3 km/h 54 % 0 mm
16:45 15.9 °C 6.6 °C 1030 hPa NE 9.3 km/h 9.3 km/h 54 % 0 mm
16:50 15.6 °C 6.3 °C 1030 hPa NE 6.9 km/h 6.9 km/h 54 % 0 mm
16:55 15.5 °C 6.5 °C 1030 hPa NE 9.3 km/h 9.3 km/h 55 % 0 mm
17:00 15.4 °C 6.4 °C 1030 hPa NE 7.4 km/h 7.4 km/h 55 % 0 mm
17:05 15.3 °C 6.3 °C 1030 hPa NE 5.8 km/h 6.1 km/h 55 % 0 mm
17:07 15.3 °C 6.3 °C 1030 hPa NE 9.3 km/h 9.3 km/h 55 % 0 mm
17:12 15.1 °C 6.1 °C 1030 hPa NE 9.3 km/h 9.3 km/h 55 % 0 mm
17:17 14.9 °C 6.2 °C 1029 hPa NE 7.4 km/h 7.4 km/h 56 % 0 mm
17:22 14.8 °C 6.1 °C 1029 hPa NE 9 km/h 9 km/h 56 % 0 mm
17:27 14.6 °C 5.9 °C 1029 hPa NE 5 km/h 5.8 km/h 56 % 0 mm
17:32 14.5 °C 5.8 °C 1029 hPa NE 5.6 km/h 5.6 km/h 56 % 0 mm
17:37 14.2 °C 5.8 °C 1029 hPa NE 5.6 km/h 5.6 km/h 57 % 0 mm
17:42 14 °C 5.6 °C 1029 hPa NE 7.4 km/h 7.4 km/h 57 % 0 mm
17:47 13.8 °C 5.4 °C 1029 hPa NE 5.6 km/h 5.6 km/h 57 % 0 mm
17:52 13.6 °C 5.5 °C 1029 hPa NE 5.6 km/h 5.6 km/h 58 % 0 mm
17:57 13.4 °C 5.3 °C 1029 hPa NE 3.7 km/h 3.7 km/h 58 % 0 mm
18:02 13.1 °C 5.3 °C 1029 hPa NE 3.7 km/h 3.7 km/h 59 % 0 mm
18:07 12.9 °C 5.1 °C 1029 hPa NE 3.7 km/h 3.7 km/h 59 % 0 mm
18:12 12.8 °C 5.2 °C 1029 hPa NE 3.7 km/h 3.9 km/h 60 % 0 mm
18:17 12.6 °C 5.1 °C 1030 hPa NE 7.4 km/h 7.4 km/h 60 % 0 mm
18:22 12.5 °C 4.9 °C 1030 hPa NE 3.7 km/h 3.7 km/h 60 % 0 mm
18:27 12.3 °C 5 °C 1030 hPa NE 3.7 km/h 3.7 km/h 61 % 0 mm
18:32 12.1 °C 4.8 °C 1030 hPa NE 3.7 km/h 3.7 km/h 61 % 0 mm
18:37 12 °C 4.7 °C 1030 hPa NE 3.9 km/h 3.9 km/h 61 % 0 mm
18:42 11.9 °C 4.8 °C 1030 hPa NE 3.7 km/h 3.7 km/h 62 % 0 mm
18:47 11.8 °C 4.7 °C 1030 hPa NE 3.9 km/h 3.9 km/h 62 % 0 mm
18:52 11.6 °C 4.8 °C 1030 hPa NE 1.9 km/h   63 % 0 mm
18:57 11.5 °C 4.7 °C 1030 hPa Calm     63 % 0 mm
19:02 11.4 °C 4.6 °C 1029 hPa NE 1.9 km/h   63 % 0 mm
19:07 11.3 °C 4.5 °C 1029 hPa NE 3.7 km/h   63 % 0 mm
19:12 11.3 °C 4.5 °C 1029 hPa NE 3.7 km/h 3.7 km/h 63 % 0 mm
19:17 11.3 °C 4.5 °C 1030 hPa NE 3.7 km/h 3.7 km/h 63 % 0 mm
19:22 11.2 °C 4.4 °C 1030 hPa NE 2.6 km/h 2.6 km/h 63 % 0 mm
19:27 11.1 °C 4.6 °C 1030 hPa NE 3.7 km/h 3.7 km/h 64 % 0 mm
19:32 11.1 °C 4.6 °C 1030 hPa NE 3.7 km/h   64 % 0 mm
19:37 11 °C 4.4 °C 1030 hPa NE 2.3 km/h 2.3 km/h 64 % 0 mm
19:42 11 °C 4.4 °C 1030 hPa Calm     64 % 0 mm
19:47 10.9 °C 4.6 °C 1030 hPa NE 2.6 km/h 2.6 km/h 65 % 0 mm
19:52 10.8 °C 4.5 °C 1030 hPa Calm     65 % 0 mm
19:57 10.7 °C 4.4 °C 1030 hPa NE 1.9 km/h   65 % 0 mm
20:02 10.6 °C 4.1 °C 1030 hPa NE 1.9 km/h 1.9 km/h 64 % 0 mm
20:07 10.5 °C 4.2 °C 1030 hPa NE 1.9 km/h 1.9 km/h 65 % 0 mm
20:12 10.4 °C 4.1 °C 1030 hPa Calm     65 % 0 mm
20:17 10.2 °C 3.9 °C 1030 hPa Calm     65 % 0 mm
20:22 10 °C 3.9 °C 1030 hPa Calm     66 % 0 mm
20:27 9.8 °C 3.7 °C 1030 hPa NE 3.7 km/h   66 % 0 mm
20:32 9.5 °C 3.4 °C 1030 hPa NE 2.6 km/h 2.6 km/h 66 % 0 mm
20:35 4.6 °C 1.3 °C 1027 hPa Calm   3.2 km/h 79 % 0 mm
20:37 9.4 °C 3.6 °C 1030 hPa NE 1.9 km/h 1.9 km/h 67 % 0 mm
20:42 9.3 °C 3.5 °C 1030 hPa NE 2.3 km/h 2.3 km/h 67 % 0 mm
20:45 4.5 °C 1.2 °C 1027 hPa Calm     79 % 0 mm
20:47 9.3 °C 3.5 °C 1030 hPa NE 2.6 km/h 2.6 km/h 67 % 0 mm
20:52 9.3 °C 3.7 °C 1030 hPa NE 1.9 km/h 1.9 km/h 68 % 0 mm
20:55 4.3 °C 1 °C 1028 hPa Calm     79 % 0 mm
20:57 9.2 °C 3.6 °C 1030 hPa NE 1.9 km/h 1.9 km/h 68 % 0 mm
21:02 9.1 °C 3.7 °C 1030 hPa Calm     69 % 0 mm
21:05 4.2 °C 0.9 °C 1028 hPa NE 1.6 km/h 3.2 km/h 79 % 0 mm
21:07 9 °C 3.6 °C 1030 hPa Calm     69 % 0 mm
21:12 9 °C 3.6 °C 1030 hPa Calm     69 % 0 mm
21:15 4.2 °C 0.9 °C 1028 hPa Calm     79 % 0 mm
21:17 8.8 °C 3.4 °C 1030 hPa Calm     69 % 0 mm
21:22 8.7 °C 3.3 °C 1030 hPa Calm     69 % 0 mm
21:25 4.3 °C 1 °C 1028 hPa Calm   3.2 km/h 79 % 0 mm
21:27 8.6 °C 3.2 °C 1030 hPa NE 2.3 km/h 2.3 km/h 69 % 0 mm
21:32 8.5 °C 3.1 °C 1030 hPa NE 1.9 km/h 1.9 km/h 69 % 0 mm
21:35 4.3 °C 1 °C 1028 hPa NE 1.6 km/h 1.6 km/h 79 % 0 mm
21:37 8.5 °C 3.1 °C 1030 hPa NE 1.9 km/h   69 % 0 mm
21:42 8.4 °C 3.2 °C 1030 hPa Calm     70 % 0 mm
21:45 4.2 °C 0.9 °C 1028 hPa NE 1.6 km/h 1.6 km/h 79 % 0 mm
21:47 8.3 °C 3.2 °C 1030 hPa Calm     70 % 0 mm
21:52 8.2 °C 3.3 °C 1030 hPa Calm     71 % 0 mm
21:55 4 °C 0.7 °C 1028 hPa NE 1.6 km/h 1.6 km/h 79 % 0 mm
21:57 8.2 °C 3.3 °C 1030 hPa Calm     71 % 0 mm
22:02 8.1 °C 3.2 °C 1029 hPa Calm     71 % 0 mm
22:05 3.9 °C 0.6 °C 1028 hPa NE 1.6 km/h 1.6 km/h 79 % 0 mm
22:07 8 °C 3.1 °C 1029 hPa Calm     71 % 0 mm
22:12 8 °C 3.3 °C 1029 hPa Calm     72 % 0 mm
22:15 3.6 °C 0.3 °C 1028 hPa NE 1.6 km/h 4.8 km/h 79 % 0 mm
22:17 8 °C 3.3 °C 1030 hPa Calm     72 % 0 mm
22:22 7.9 °C 3.2 °C 1030 hPa Calm     72 % 0 mm
22:25 3.4 °C 0.1 °C 1027 hPa NE 1.6 km/h 3.2 km/h 79 % 0 mm
22:27 7.9 °C 3.2 °C 1030 hPa Calm     72 % 0 mm
22:32 7.9 °C 3.3 °C 1030 hPa Calm     73 % 0 mm
22:35 3.3 °C 0 °C 1027 hPa Calm   1.6 km/h 79 % 0 mm
22:37 7.7 °C 3.2 °C 1030 hPa Calm     73 % 0 mm
22:42 7.6 °C 3.1 °C 1030 hPa Calm     73 % 0 mm
22:45 3.1 °C -0.2 °C 1027 hPa Calm     79 % 0 mm
22:47 7.5 °C 3.2 °C 1029 hPa NE 1.9 km/h   74 % 0 mm
22:52 7.4 °C 3.1 °C 1029 hPa Calm     74 % 0 mm
22:55 3 °C -0.3 °C 1027 hPa Calm     79 % 0 mm
22:57 7.3 °C 2.9 °C 1029 hPa Calm     74 % 0 mm
23:02 7.1 °C 2.8 °C 1030 hPa NE 1.9 km/h 1.9 km/h 74 % 0 mm
23:05 2.9 °C -0.4 °C 1027 hPa Calm     79 % 0 mm
23:07 7.1 °C 2.8 °C 1030 hPa Calm     74 % 0 mm
23:12 7 °C 2.9 °C 1030 hPa Calm     75 % 0 mm
23:15 3 °C -0.3 °C 1027 hPa Calm     79 % 0 mm
23:17 6.8 °C 2.7 °C 1030 hPa Calm     75 % 0 mm
23:22 6.7 °C 2.4 °C 1030 hPa Calm     74 % 0 mm
23:25 2.8 °C -0.5 °C 1027 hPa Calm     79 % 0 mm
23:27 6.5 °C 2.2 °C 1030 hPa Calm     74 % 0 mm
23:32 6.5 °C 2.4 °C 1030 hPa Calm     75 % 0 mm
23:35 2.9 °C -0.2 °C 1026 hPa Calm     80 % 0 mm
23:37 6.5 °C 2.4 °C 1030 hPa Calm     75 % 0 mm
23:42 6.5 °C 2.6 °C 1030 hPa Calm     76 % 0 mm
23:45 3 °C -0.3 °C 1026 hPa NE 1.6 km/h 3.2 km/h 79 % 0 mm
23:47 6.5 °C 2.6 °C 1030 hPa Calm     76 % 0 mm
23:52 6.3 °C 2.4 °C 1030 hPa Calm     76 % 0 mm
23:55 2.9 °C -0.4 °C 1027 hPa Calm   1.6 km/h 79 % 0 mm
23:57 6.2 °C 2.3 °C 1030 hPa NE 3.7 km/h 3.7 km/h 76 % 0 mm
Meteo Sesrovires
Elogis d' Weather Underground - 1.5 mb

Guio original per  Jim McMurry - jmcmurry@mwt.net Adaptat per a la plantilla per  Wim van der Kuil - Leuven-Template.eu

Trobareu la nostra informacio del temps tambe a:

Weather Underground

AWEKAS